sensor_id;sensor_type;location;lat;lon;timestamp;temperature;humidity
4787;DHT22;62338;48.832;9.422;2022-11-15T00:01:09;10.90;1.00
4787;DHT22;62338;48.832;9.422;2022-11-15T00:03:16;10.90;1.00
4787;DHT22;62338;48.832;9.422;2022-11-15T00:05:18;10.90;1.00
4787;DHT22;62338;48.832;9.422;2022-11-15T00:07:20;11.00;1.00
4787;DHT22;62338;48.832;9.422;2022-11-15T00:09:41;11.00;99.90
4787;DHT22;62338;48.832;9.422;2022-11-15T00:11:46;11.00;1.00
4787;DHT22;62338;48.832;9.422;2022-11-15T00:13:48;11.10;99.90
4787;DHT22;62338;48.832;9.422;2022-11-15T00:15:50;11.10;99.90
4787;DHT22;62338;48.832;9.422;2022-11-15T00:17:51;11.10;99.90
4787;DHT22;62338;48.832;9.422;2022-11-15T00:19:53;11.10;99.90
4787;DHT22;62338;48.832;9.422;2022-11-15T00:21:55;11.10;99.90
4787;DHT22;62338;48.832;9.422;2022-11-15T00:23:56;11.20;99.90
4787;DHT22;62338;48.832;9.422;2022-11-15T00:25:59;11.10;99.90
4787;DHT22;62338;48.832;9.422;2022-11-15T00:28:02;11.10;99.90
4787;DHT22;62338;48.832;9.422;2022-11-15T00:30:04;11.00;99.90
4787;DHT22;62338;48.832;9.422;2022-11-15T00:32:06;11.00;1.00
4787;DHT22;62338;48.832;9.422;2022-11-15T00:34:09;10.90;1.00
4787;DHT22;62338;48.832;9.422;2022-11-15T00:36:11;10.90;1.00
4787;DHT22;62338;48.832;9.422;2022-11-15T00:38:13;10.90;1.00
4787;DHT22;62338;48.832;9.422;2022-11-15T00:40:15;10.90;1.00
4787;DHT22;62338;48.832;9.422;2022-11-15T00:42:16;10.80;1.00
4787;DHT22;62338;48.832;9.422;2022-11-15T00:44:18;10.80;1.00
4787;DHT22;62338;48.832;9.422;2022-11-15T00:46:20;10.90;1.00
4787;DHT22;62338;48.832;9.422;2022-11-15T00:48:22;10.90;1.00
4787;DHT22;62338;48.832;9.422;2022-11-15T00:50:23;10.90;1.00
4787;DHT22;62338;48.832;9.422;2022-11-15T00:52:25;10.90;1.00
4787;DHT22;62338;48.832;9.422;2022-11-15T00:54:27;10.90;1.00
4787;DHT22;62338;48.832;9.422;2022-11-15T00:56:28;10.90;1.00
4787;DHT22;62338;48.832;9.422;2022-11-15T00:58:30;10.90;1.00
4787;DHT22;62338;48.832;9.422;2022-11-15T01:00:32;10.90;1.00
4787;DHT22;62338;48.832;9.422;2022-11-15T01:02:34;10.90;99.90
4787;DHT22;62338;48.832;9.422;2022-11-15T01:04:36;10.90;1.00
4787;DHT22;62338;48.832;9.422;2022-11-15T01:06:38;10.90;1.00
4787;DHT22;62338;48.832;9.422;2022-11-15T01:08:40;10.90;1.00
4787;DHT22;62338;48.832;9.422;2022-11-15T01:10:42;10.90;99.90
4787;DHT22;62338;48.832;9.422;2022-11-15T01:12:44;10.90;99.90
4787;DHT22;62338;48.832;9.422;2022-11-15T01:14:45;10.90;1.00
4787;DHT22;62338;48.832;9.422;2022-11-15T01:16:47;10.90;99.90
4787;DHT22;62338;48.832;9.422;2022-11-15T01:18:49;10.80;99.90
4787;DHT22;62338;48.832;9.422;2022-11-15T01:20:50;10.80;99.90
4787;DHT22;62338;48.832;9.422;2022-11-15T01:22:52;10.80;99.90
4787;DHT22;62338;48.832;9.422;2022-11-15T01:24:54;10.80;99.90
4787;DHT22;62338;48.832;9.422;2022-11-15T01:26:55;10.80;99.90
4787;DHT22;62338;48.832;9.422;2022-11-15T01:28:57;10.70;1.00
4787;DHT22;62338;48.832;9.422;2022-11-15T01:31:04;10.70;99.90
4787;DHT22;62338;48.832;9.422;2022-11-15T01:33:06;10.70;99.90
4787;DHT22;62338;48.832;9.422;2022-11-15T01:35:07;10.70;99.90
4787;DHT22;62338;48.832;9.422;2022-11-15T01:37:09;10.80;99.90
4787;DHT22;62338;48.832;9.422;2022-11-15T01:39:11;10.70;99.90
4787;DHT22;62338;48.832;9.422;2022-11-15T01:41:18;10.70;1.00
4787;DHT22;62338;48.832;9.422;2022-11-15T01:43:35;10.60;99.90
4787;DHT22;62338;48.832;9.422;2022-11-15T01:45:37;10.60;1.00
4787;DHT22;62338;48.832;9.422;2022-11-15T01:47:42;10.50;1.00
4787;DHT22;62338;48.832;9.422;2022-11-15T01:49:58;10.50;1.00
4787;DHT22;62338;48.832;9.422;2022-11-15T01:52:02;10.40;1.00
4787;DHT22;62338;48.832;9.422;2022-11-15T01:54:08;10.40;1.00
4787;DHT22;62338;48.832;9.422;2022-11-15T01:56:17;10.30;1.00
4787;DHT22;62338;48.832;9.422;2022-11-15T01:58:19;10.20;1.00
4787;DHT22;62338;48.832;9.422;2022-11-15T02:00:21;10.30;1.00
4787;DHT22;62338;48.832;9.422;2022-11-15T02:02:23;10.30;1.00
4787;DHT22;62338;48.832;9.422;2022-11-15T02:04:31;10.30;1.00
4787;DHT22;62338;48.832;9.422;2022-11-15T02:06:35;10.30;1.00
4787;DHT22;62338;48.832;9.422;2022-11-15T02:08:37;10.30;1.00
4787;DHT22;62338;48.832;9.422;2022-11-15T02:10:38;10.40;1.00
4787;DHT22;62338;48.832;9.422;2022-11-15T02:12:40;10.50;1.00
4787;DHT22;62338;48.832;9.422;2022-11-15T02:14:45;10.40;1.00
4787;DHT22;62338;48.832;9.422;2022-11-15T02:17:16;10.40;1.00
4787;DHT22;62338;48.832;9.422;2022-11-15T02:19:50;10.30;1.00
4787;DHT22;62338;48.832;9.422;2022-11-15T02:29:07;10.50;1.00
4787;DHT22;62338;48.832;9.422;2022-11-15T02:31:26;10.60;1.00
4787;DHT22;62338;48.832;9.422;2022-11-15T02:33:43;10.50;1.00
4787;DHT22;62338;48.832;9.422;2022-11-15T02:38:02;10.70;1.00
4787;DHT22;62338;48.832;9.422;2022-11-15T02:42:14;10.60;1.00
4787;DHT22;62338;48.832;9.422;2022-11-15T02:44:41;10.50;1.00
4787;DHT22;62338;48.832;9.422;2022-11-15T02:47:03;10.40;1.00
4787;DHT22;62338;48.832;9.422;2022-11-15T02:49:15;10.40;1.00
4787;DHT22;62338;48.832;9.422;2022-11-15T02:51:18;10.40;1.00
4787;DHT22;62338;48.832;9.422;2022-11-15T02:53:24;10.40;99.90
4787;DHT22;62338;48.832;9.422;2022-11-15T02:55:35;10.30;28.00
4787;DHT22;62338;48.832;9.422;2022-11-15T02:57:45;10.40;99.90
4787;DHT22;62338;48.832;9.422;2022-11-15T03:00:06;10.40;73.90
4787;DHT22;62338;48.832;9.422;2022-11-15T03:02:31;10.50;4.70
4787;DHT22;62338;48.832;9.422;2022-11-15T03:04:43;10.50;1.00
4787;DHT22;62338;48.832;9.422;2022-11-15T03:09:14;10.60;1.00
4787;DHT22;62338;48.832;9.422;2022-11-15T03:11:21;10.60;1.00
4787;DHT22;62338;48.832;9.422;2022-11-15T03:13:33;10.60;1.00
4787;DHT22;62338;48.832;9.422;2022-11-15T03:15:44;10.60;1.00
4787;DHT22;62338;48.832;9.422;2022-11-15T03:20:01;10.40;99.90
4787;DHT22;62338;48.832;9.422;2022-11-15T03:22:04;10.30;99.90
4787;DHT22;62338;48.832;9.422;2022-11-15T03:24:09;10.20;99.90
4787;DHT22;62338;48.832;9.422;2022-11-15T03:26:13;10.20;99.90
4787;DHT22;62338;48.832;9.422;2022-11-15T03:28:23;10.10;99.90
4787;DHT22;62338;48.832;9.422;2022-11-15T03:30:27;10.10;99.90
4787;DHT22;62338;48.832;9.422;2022-11-15T03:32:31;10.00;99.90
4787;DHT22;62338;48.832;9.422;2022-11-15T03:36:37;10.00;99.90
4787;DHT22;62338;48.832;9.422;2022-11-15T03:38:40;10.00;99.90
4787;DHT22;62338;48.832;9.422;2022-11-15T03:40:49;10.00;99.90
4787;DHT22;62338;48.832;9.422;2022-11-15T03:45:39;10.30;99.90
4787;DHT22;62338;48.832;9.422;2022-11-15T03:47:53;10.30;99.90
4787;DHT22;62338;48.832;9.422;2022-11-15T03:50:00;10.20;99.90
4787;DHT22;62338;48.832;9.422;2022-11-15T03:52:04;10.20;99.90
4787;DHT22;62338;48.832;9.422;2022-11-15T03:54:06;10.20;99.90
4787;DHT22;62338;48.832;9.422;2022-11-15T03:56:08;10.10;99.90
4787;DHT22;62338;48.832;9.422;2022-11-15T03:58:10;10.10;99.90
4787;DHT22;62338;48.832;9.422;2022-11-15T04:00:12;10.00;99.90
4787;DHT22;62338;48.832;9.422;2022-11-15T04:02:14;10.00;99.90
4787;DHT22;62338;48.832;9.422;2022-11-15T04:04:15;10.00;99.90
4787;DHT22;62338;48.832;9.422;2022-11-15T04:06:17;10.10;99.90
4787;DHT22;62338;48.832;9.422;2022-11-15T04:08:19;10.10;99.90
4787;DHT22;62338;48.832;9.422;2022-11-15T04:10:20;10.10;99.90
4787;DHT22;62338;48.832;9.422;2022-11-15T04:12:22;10.00;99.90
4787;DHT22;62338;48.832;9.422;2022-11-15T04:14:33;10.00;99.90
4787;DHT22;62338;48.832;9.422;2022-11-15T04:16:35;10.00;99.90
4787;DHT22;62338;48.832;9.422;2022-11-15T04:18:44;10.00;99.90
4787;DHT22;62338;48.832;9.422;2022-11-15T04:20:45;10.00;99.90
4787;DHT22;62338;48.832;9.422;2022-11-15T04:23:10;10.00;99.90
4787;DHT22;62338;48.832;9.422;2022-11-15T04:25:31;10.00;99.90
4787;DHT22;62338;48.832;9.422;2022-11-15T04:27:33;10.00;99.90
4787;DHT22;62338;48.832;9.422;2022-11-15T04:29:34;9.90;99.90
4787;DHT22;62338;48.832;9.422;2022-11-15T04:31:36;9.90;99.90
4787;DHT22;62338;48.832;9.422;2022-11-15T04:33:38;9.80;99.90
4787;DHT22;62338;48.832;9.422;2022-11-15T04:35:41;9.70;1.00
4787;DHT22;62338;48.832;9.422;2022-11-15T04:37:42;9.70;1.00
4787;DHT22;62338;48.832;9.422;2022-11-15T04:39:49;9.70;1.00
4787;DHT22;62338;48.832;9.422;2022-11-15T04:41:51;9.60;1.00
4787;DHT22;62338;48.832;9.422;2022-11-15T04:43:53;9.60;1.00
4787;DHT22;62338;48.832;9.422;2022-11-15T04:45:55;9.60;1.00
4787;DHT22;62338;48.832;9.422;2022-11-15T04:47:56;9.60;1.00
4787;DHT22;62338;48.832;9.422;2022-11-15T04:49:58;9.60;1.00
4787;DHT22;62338;48.832;9.422;2022-11-15T04:52:00;9.60;1.00
4787;DHT22;62338;48.832;9.422;2022-11-15T04:54:02;9.70;1.00
4787;DHT22;62338;48.832;9.422;2022-11-15T04:56:04;9.70;1.00
4787;DHT22;62338;48.832;9.422;2022-11-15T04:58:05;9.80;1.00
4787;DHT22;62338;48.832;9.422;2022-11-15T05:00:10;9.80;1.00
4787;DHT22;62338;48.832;9.422;2022-11-15T05:02:12;9.70;1.00
4787;DHT22;62338;48.832;9.422;2022-11-15T05:04:14;9.70;1.00
4787;DHT22;62338;48.832;9.422;2022-11-15T05:06:21;9.70;1.00
4787;DHT22;62338;48.832;9.422;2022-11-15T05:08:23;9.70;99.90
4787;DHT22;62338;48.832;9.422;2022-11-15T05:10:25;9.70;99.90
4787;DHT22;62338;48.832;9.422;2022-11-15T05:12:27;9.70;99.90
4787;DHT22;62338;48.832;9.422;2022-11-15T05:14:28;9.80;99.90
4787;DHT22;62338;48.832;9.422;2022-11-15T05:16:30;9.90;99.90
4787;DHT22;62338;48.832;9.422;2022-11-15T05:18:32;9.90;99.90
4787;DHT22;62338;48.832;9.422;2022-11-15T05:20:34;9.90;99.90
4787;DHT22;62338;48.832;9.422;2022-11-15T05:22:35;9.90;99.90
4787;DHT22;62338;48.832;9.422;2022-11-15T05:24:37;9.90;99.90
4787;DHT22;62338;48.832;9.422;2022-11-15T05:26:39;9.90;99.90
4787;DHT22;62338;48.832;9.422;2022-11-15T05:28:40;9.90;99.90
4787;DHT22;62338;48.832;9.422;2022-11-15T05:30:42;10.00;99.90
4787;DHT22;62338;48.832;9.422;2022-11-15T05:32:44;10.00;99.90
4787;DHT22;62338;48.832;9.422;2022-11-15T05:34:46;10.20;99.90
4787;DHT22;62338;48.832;9.422;2022-11-15T05:36:48;10.20;99.90
4787;DHT22;62338;48.832;9.422;2022-11-15T05:38:50;10.20;99.90
4787;DHT22;62338;48.832;9.422;2022-11-15T05:40:52;10.10;99.90
4787;DHT22;62338;48.832;9.422;2022-11-15T05:42:54;10.00;99.90
4787;DHT22;62338;48.832;9.422;2022-11-15T05:44:56;9.90;99.90
4787;DHT22;62338;48.832;9.422;2022-11-15T05:46:58;9.90;99.90
4787;DHT22;62338;48.832;9.422;2022-11-15T05:49:01;9.80;99.90
4787;DHT22;62338;48.832;9.422;2022-11-15T05:51:03;9.80;99.90
4787;DHT22;62338;48.832;9.422;2022-11-15T05:53:06;9.70;99.90
4787;DHT22;62338;48.832;9.422;2022-11-15T05:55:09;9.70;99.90
4787;DHT22;62338;48.832;9.422;2022-11-15T05:57:11;9.70;99.90
4787;DHT22;62338;48.832;9.422;2022-11-15T05:59:13;9.80;99.90
4787;DHT22;62338;48.832;9.422;2022-11-15T06:01:15;9.70;99.90
4787;DHT22;62338;48.832;9.422;2022-11-15T06:03:17;9.70;99.90
4787;DHT22;62338;48.832;9.422;2022-11-15T06:05:19;9.70;99.90
4787;DHT22;62338;48.832;9.422;2022-11-15T06:07:20;9.70;99.90
4787;DHT22;62338;48.832;9.422;2022-11-15T06:09:22;9.60;99.90
4787;DHT22;62338;48.832;9.422;2022-11-15T06:11:24;9.50;99.90
4787;DHT22;62338;48.832;9.422;2022-11-15T06:13:25;9.40;99.90
4787;DHT22;62338;48.832;9.422;2022-11-15T06:15:27;9.50;99.90
4787;DHT22;62338;48.832;9.422;2022-11-15T06:17:29;9.60;99.90
4787;DHT22;62338;48.832;9.422;2022-11-15T06:19:31;9.70;99.90
4787;DHT22;62338;48.832;9.422;2022-11-15T06:21:34;9.60;99.90
4787;DHT22;62338;48.832;9.422;2022-11-15T06:23:36;9.70;99.90
4787;DHT22;62338;48.832;9.422;2022-11-15T06:25:37;9.60;99.90
4787;DHT22;62338;48.832;9.422;2022-11-15T06:27:39;9.50;99.90
4787;DHT22;62338;48.832;9.422;2022-11-15T06:29:41;9.50;1.00
4787;DHT22;62338;48.832;9.422;2022-11-15T06:31:42;9.40;99.90
4787;DHT22;62338;48.832;9.422;2022-11-15T06:33:44;9.40;99.90
4787;DHT22;62338;48.832;9.422;2022-11-15T06:35:46;9.50;99.90
4787;DHT22;62338;48.832;9.422;2022-11-15T06:37:48;9.60;99.90
4787;DHT22;62338;48.832;9.422;2022-11-15T06:39:50;9.60;99.90
4787;DHT22;62338;48.832;9.422;2022-11-15T06:41:51;9.70;99.90
4787;DHT22;62338;48.832;9.422;2022-11-15T06:43:53;9.80;99.90
4787;DHT22;62338;48.832;9.422;2022-11-15T06:45:55;10.00;99.90
4787;DHT22;62338;48.832;9.422;2022-11-15T06:47:57;10.00;99.90
4787;DHT22;62338;48.832;9.422;2022-11-15T06:49:59;10.10;99.90
4787;DHT22;62338;48.832;9.422;2022-11-15T06:52:00;10.00;99.90
4787;DHT22;62338;48.832;9.422;2022-11-15T06:54:02;10.00;99.90
4787;DHT22;62338;48.832;9.422;2022-11-15T06:56:06;10.00;99.90
4787;DHT22;62338;48.832;9.422;2022-11-15T06:58:08;10.00;99.90
4787;DHT22;62338;48.832;9.422;2022-11-15T07:00:10;9.90;99.90
4787;DHT22;62338;48.832;9.422;2022-11-15T07:02:13;10.00;99.90
4787;DHT22;62338;48.832;9.422;2022-11-15T07:04:15;10.10;99.90
4787;DHT22;62338;48.832;9.422;2022-11-15T07:06:17;10.20;99.90
4787;DHT22;62338;48.832;9.422;2022-11-15T07:08:18;10.10;99.90
4787;DHT22;62338;48.832;9.422;2022-11-15T07:10:21;10.20;1.00
4787;DHT22;62338;48.832;9.422;2022-11-15T07:12:25;10.20;99.90
4787;DHT22;62338;48.832;9.422;2022-11-15T07:14:27;10.30;2.50
4787;DHT22;62338;48.832;9.422;2022-11-15T07:16:29;10.40;1.00
4787;DHT22;62338;48.832;9.422;2022-11-15T07:18:30;10.40;50.20
4787;DHT22;62338;48.832;9.422;2022-11-15T07:20:32;10.60;1.00
4787;DHT22;62338;48.832;9.422;2022-11-15T07:22:34;11.10;99.90
4787;DHT22;62338;48.832;9.422;2022-11-15T07:24:36;11.40;1.00
4787;DHT22;62338;48.832;9.422;2022-11-15T07:26:37;11.70;92.10
4787;DHT22;62338;48.832;9.422;2022-11-15T07:28:39;11.90;1.00
4787;DHT22;62338;48.832;9.422;2022-11-15T07:30:41;12.20;1.00
4787;DHT22;62338;48.832;9.422;2022-11-15T07:32:46;12.60;99.90
4787;DHT22;62338;48.832;9.422;2022-11-15T07:34:48;12.80;1.00
4787;DHT22;62338;48.832;9.422;2022-11-15T07:36:49;13.30;99.90
4787;DHT22;62338;48.832;9.422;2022-11-15T07:38:51;13.50;1.00
4787;DHT22;62338;48.832;9.422;2022-11-15T07:41:00;13.20;99.90
4787;DHT22;62338;48.832;9.422;2022-11-15T07:43:05;12.80;1.00
4787;DHT22;62338;48.832;9.422;2022-11-15T07:45:07;12.60;59.30
4787;DHT22;62338;48.832;9.422;2022-11-15T07:47:09;12.60;1.00
4787;DHT22;62338;48.832;9.422;2022-11-15T07:49:11;12.70;99.90
4787;DHT22;62338;48.832;9.422;2022-11-15T07:51:14;12.90;1.00
4787;DHT22;62338;48.832;9.422;2022-11-15T07:53:17;13.00;99.90
4787;DHT22;62338;48.832;9.422;2022-11-15T07:55:18;13.10;1.00
4787;DHT22;62338;48.832;9.422;2022-11-15T07:57:20;13.00;99.90
4787;DHT22;62338;48.832;9.422;2022-11-15T07:59:22;13.40;1.00
4787;DHT22;62338;48.832;9.422;2022-11-15T08:01:23;14.20;1.00
4787;DHT22;62338;48.832;9.422;2022-11-15T08:03:25;15.10;1.00
4787;DHT22;62338;48.832;9.422;2022-11-15T08:05:27;15.40;1.00
4787;DHT22;62338;48.832;9.422;2022-11-15T08:07:30;16.00;99.90
4787;DHT22;62338;48.832;9.422;2022-11-15T08:09:32;17.00;1.00
4787;DHT22;62338;48.832;9.422;2022-11-15T08:11:33;17.80;1.00
4787;DHT22;62338;48.832;9.422;2022-11-15T08:13:35;18.50;99.90
4787;DHT22;62338;48.832;9.422;2022-11-15T08:15:37;19.10;99.90
4787;DHT22;62338;48.832;9.422;2022-11-15T08:17:39;19.00;99.90
4787;DHT22;62338;48.832;9.422;2022-11-15T08:19:40;18.50;99.90
4787;DHT22;62338;48.832;9.422;2022-11-15T08:21:42;18.00;99.90
4787;DHT22;62338;48.832;9.422;2022-11-15T08:23:44;17.60;99.90
4787;DHT22;62338;48.832;9.422;2022-11-15T08:25:46;17.30;99.90
4787;DHT22;62338;48.832;9.422;2022-11-15T08:27:51;16.70;99.90
4787;DHT22;62338;48.832;9.422;2022-11-15T08:29:53;16.00;1.00
4787;DHT22;62338;48.832;9.422;2022-11-15T08:32:00;15.60;1.00
4787;DHT22;62338;48.832;9.422;2022-11-15T08:34:02;15.20;25.20
4787;DHT22;62338;48.832;9.422;2022-11-15T08:36:04;15.00;99.90
4787;DHT22;62338;48.832;9.422;2022-11-15T08:38:06;14.90;99.90
4787;DHT22;62338;48.832;9.422;2022-11-15T08:40:08;14.80;1.00
4787;DHT22;62338;48.832;9.422;2022-11-15T08:42:10;14.90;99.90
4787;DHT22;62338;48.832;9.422;2022-11-15T08:44:20;15.00;99.90
4787;DHT22;62338;48.832;9.422;2022-11-15T08:46:22;15.20;1.00
4787;DHT22;62338;48.832;9.422;2022-11-15T08:48:23;15.50;99.90
4787;DHT22;62338;48.832;9.422;2022-11-15T08:50:25;16.10;99.90
4787;DHT22;62338;48.832;9.422;2022-11-15T08:52:27;16.30;99.90
4787;DHT22;62338;48.832;9.422;2022-11-15T08:54:28;16.20;19.00
4787;DHT22;62338;48.832;9.422;2022-11-15T08:56:30;15.90;1.00
4787;DHT22;62338;48.832;9.422;2022-11-15T08:58:32;15.40;1.00
4787;DHT22;62338;48.832;9.422;2022-11-15T09:00:34;15.30;1.00
4787;DHT22;62338;48.832;9.422;2022-11-15T09:02:38;15.00;1.00
4787;DHT22;62338;48.832;9.422;2022-11-15T09:04:41;14.80;99.90
4787;DHT22;62338;48.832;9.422;2022-11-15T09:06:43;14.80;1.00
4787;DHT22;62338;48.832;9.422;2022-11-15T09:08:45;15.00;1.00
4787;DHT22;62338;48.832;9.422;2022-11-15T09:10:49;15.80;99.90
4787;DHT22;62338;48.832;9.422;2022-11-15T09:12:51;16.40;1.00
4787;DHT22;62338;48.832;9.422;2022-11-15T09:14:52;17.10;1.00
4787;DHT22;62338;48.832;9.422;2022-11-15T09:16:54;17.80;1.00
4787;DHT22;62338;48.832;9.422;2022-11-15T09:18:56;18.10;1.00
4787;DHT22;62338;48.832;9.422;2022-11-15T09:20:59;18.40;99.90
4787;DHT22;62338;48.832;9.422;2022-11-15T09:23:01;18.30;99.90
4787;DHT22;62338;48.832;9.422;2022-11-15T09:25:03;18.20;99.90
4787;DHT22;62338;48.832;9.422;2022-11-15T09:27:10;18.00;99.90
4787;DHT22;62338;48.832;9.422;2022-11-15T09:29:12;17.90;99.90
4787;DHT22;62338;48.832;9.422;2022-11-15T09:31:13;17.80;1.00
4787;DHT22;62338;48.832;9.422;2022-11-15T09:33:22;17.60;1.00
4787;DHT22;62338;48.832;9.422;2022-11-15T09:35:24;17.70;1.00
4787;DHT22;62338;48.832;9.422;2022-11-15T09:37:25;17.50;1.00
4787;DHT22;62338;48.832;9.422;2022-11-15T09:39:27;17.30;1.00
4787;DHT22;62338;48.832;9.422;2022-11-15T09:48:55;16.10;99.90
4787;DHT22;62338;48.832;9.422;2022-11-15T09:50:58;16.00;1.00
4787;DHT22;62338;48.832;9.422;2022-11-15T09:53:00;16.10;1.00
4787;DHT22;62338;48.832;9.422;2022-11-15T09:55:02;15.80;69.00
4787;DHT22;62338;48.832;9.422;2022-11-15T09:57:41;16.00;99.90
4787;DHT22;62338;48.832;9.422;2022-11-15T10:00:02;16.40;1.00
4787;DHT22;62338;48.832;9.422;2022-11-15T10:04:34;18.40;1.00
4787;DHT22;62338;48.832;9.422;2022-11-15T10:06:43;19.20;1.00
4787;DHT22;62338;48.832;9.422;2022-11-15T10:08:56;19.80;99.90
4787;DHT22;62338;48.832;9.422;2022-11-15T10:11:15;20.40;99.90
4787;DHT22;62338;48.832;9.422;2022-11-15T10:13:44;20.90;99.90
4787;DHT22;62338;48.832;9.422;2022-11-15T10:15:47;21.50;99.90
4787;DHT22;62338;48.832;9.422;2022-11-15T10:17:55;21.60;99.90
4787;DHT22;62338;48.832;9.422;2022-11-15T10:24:37;20.20;99.90
4787;DHT22;62338;48.832;9.422;2022-11-15T10:26:48;19.60;99.90
4787;DHT22;62338;48.832;9.422;2022-11-15T10:28:50;18.70;99.90
4787;DHT22;62338;48.832;9.422;2022-11-15T10:30:54;18.20;99.90
4787;DHT22;62338;48.832;9.422;2022-11-15T10:32:56;17.70;99.90
4787;DHT22;62338;48.832;9.422;2022-11-15T10:34:58;17.30;1.00
4787;DHT22;62338;48.832;9.422;2022-11-15T10:37:00;16.80;1.00
4787;DHT22;62338;48.832;9.422;2022-11-15T10:39:03;16.60;1.00
4787;DHT22;62338;48.832;9.422;2022-11-15T10:41:08;16.50;1.00
4787;DHT22;62338;48.832;9.422;2022-11-15T10:45:29;16.60;1.00
4787;DHT22;62338;48.832;9.422;2022-11-15T10:47:32;16.60;12.80
4787;DHT22;62338;48.832;9.422;2022-11-15T10:50:03;16.70;99.90
4787;DHT22;62338;48.832;9.422;2022-11-15T10:56:34;17.40;1.00
4787;DHT22;62338;48.832;9.422;2022-11-15T11:00:38;16.90;1.00
4787;DHT22;62338;48.832;9.422;2022-11-15T11:02:56;16.70;1.00
4787;DHT22;62338;48.832;9.422;2022-11-15T11:04:59;16.50;68.30
4787;DHT22;62338;48.832;9.422;2022-11-15T11:07:01;16.40;1.00
4787;DHT22;62338;48.832;9.422;2022-11-15T11:09:05;16.20;1.00
4787;DHT22;62338;48.832;9.422;2022-11-15T11:11:07;16.10;1.00
4787;DHT22;62338;48.832;9.422;2022-11-15T11:13:36;16.10;99.90
4787;DHT22;62338;48.832;9.422;2022-11-15T11:15:39;16.00;1.00
4787;DHT22;62338;48.832;9.422;2022-11-15T11:18:02;16.00;99.90
4787;DHT22;62338;48.832;9.422;2022-11-15T11:25:04;15.60;1.00
4787;DHT22;62338;48.832;9.422;2022-11-15T11:27:36;15.50;99.90
4787;DHT22;62338;48.832;9.422;2022-11-15T11:30:04;15.60;99.90
4787;DHT22;62338;48.832;9.422;2022-11-15T11:34:52;15.30;99.90
4787;DHT22;62338;48.832;9.422;2022-11-15T11:37:04;15.30;99.90
4787;DHT22;62338;48.832;9.422;2022-11-15T11:44:16;15.20;99.90
4787;DHT22;62338;48.832;9.422;2022-11-15T11:46:38;15.30;99.90
4787;DHT22;62338;48.832;9.422;2022-11-15T11:49:02;15.30;42.70
4787;DHT22;62338;48.832;9.422;2022-11-15T11:53:30;15.40;99.90
4787;DHT22;62338;48.832;9.422;2022-11-15T11:55:43;15.60;99.90
4787;DHT22;62338;48.832;9.422;2022-11-15T11:57:53;15.60;1.00
4787;DHT22;62338;48.832;9.422;2022-11-15T12:00:12;15.60;1.00
4787;DHT22;62338;48.832;9.422;2022-11-15T12:02:28;15.60;1.00
4787;DHT22;62338;48.832;9.422;2022-11-15T12:04:36;15.70;99.90
4787;DHT22;62338;48.832;9.422;2022-11-15T12:06:56;15.70;1.00
4787;DHT22;62338;48.832;9.422;2022-11-15T12:11:47;15.60;1.00
4787;DHT22;62338;48.832;9.422;2022-11-15T12:13:56;15.50;99.90
4787;DHT22;62338;48.832;9.422;2022-11-15T12:16:29;15.50;99.90
4787;DHT22;62338;48.832;9.422;2022-11-15T12:18:31;15.60;99.90
4787;DHT22;62338;48.832;9.422;2022-11-15T12:20:37;15.60;1.00
4787;DHT22;62338;48.832;9.422;2022-11-15T12:24:50;16.00;1.00
4787;DHT22;62338;48.832;9.422;2022-11-15T12:27:00;16.30;1.00
4787;DHT22;62338;48.832;9.422;2022-11-15T12:29:16;16.50;1.00
4787;DHT22;62338;48.832;9.422;2022-11-15T12:31:38;16.70;99.90
4787;DHT22;62338;48.832;9.422;2022-11-15T12:33:43;16.70;1.00
4787;DHT22;62338;48.832;9.422;2022-11-15T12:35:59;16.50;99.90
4787;DHT22;62338;48.832;9.422;2022-11-15T12:38:01;15.90;99.90
4787;DHT22;62338;48.832;9.422;2022-11-15T12:50:56;15.10;1.00
4787;DHT22;62338;48.832;9.422;2022-11-15T12:55:32;15.00;1.00
4787;DHT22;62338;48.832;9.422;2022-11-15T12:57:38;14.80;99.90
4787;DHT22;62338;48.832;9.422;2022-11-15T13:01:56;14.70;99.90
4787;DHT22;62338;48.832;9.422;2022-11-15T13:06:41;14.60;1.00
4787;DHT22;62338;48.832;9.422;2022-11-15T13:08:46;14.60;99.90
4787;DHT22;62338;48.832;9.422;2022-11-15T13:10:52;14.70;1.00
4787;DHT22;62338;48.832;9.422;2022-11-15T13:12:59;14.60;99.90
4787;DHT22;62338;48.832;9.422;2022-11-15T13:15:34;14.60;1.00
4787;DHT22;62338;48.832;9.422;2022-11-15T13:19:47;14.40;1.00
4787;DHT22;62338;48.832;9.422;2022-11-15T13:21:49;14.40;1.00
4787;DHT22;62338;48.832;9.422;2022-11-15T13:24:13;14.30;1.00
4787;DHT22;62338;48.832;9.422;2022-11-15T13:26:15;14.30;1.00
4787;DHT22;62338;48.832;9.422;2022-11-15T13:30:33;14.20;1.00
4787;DHT22;62338;48.832;9.422;2022-11-15T13:32:34;14.20;99.90
4787;DHT22;62338;48.832;9.422;2022-11-15T13:34:43;14.20;94.10
4787;DHT22;62338;48.832;9.422;2022-11-15T13:36:53;14.20;99.90
4787;DHT22;62338;48.832;9.422;2022-11-15T13:39:05;14.20;99.90
4787;DHT22;62338;48.832;9.422;2022-11-15T13:41:21;14.20;99.90
4787;DHT22;62338;48.832;9.422;2022-11-15T13:45:25;14.20;99.90
4787;DHT22;62338;48.832;9.422;2022-11-15T13:47:29;14.20;1.00
4787;DHT22;62338;48.832;9.422;2022-11-15T13:49:33;14.20;1.00
4787;DHT22;62338;48.832;9.422;2022-11-15T13:51:52;14.20;1.00
4787;DHT22;62338;48.832;9.422;2022-11-15T13:54:16;14.20;99.90
4787;DHT22;62338;48.832;9.422;2022-11-15T13:56:21;14.10;99.90
4787;DHT22;62338;48.832;9.422;2022-11-15T13:58:23;14.20;1.00
4787;DHT22;62338;48.832;9.422;2022-11-15T14:00:58;14.20;1.00
4787;DHT22;62338;48.832;9.422;2022-11-15T14:03:15;14.20;1.00
4787;DHT22;62338;48.832;9.422;2022-11-15T14:05:20;14.20;99.90
4787;DHT22;62338;48.832;9.422;2022-11-15T14:07:24;14.10;99.90
4787;DHT22;62338;48.832;9.422;2022-11-15T14:09:34;14.00;1.00
4787;DHT22;62338;48.832;9.422;2022-11-15T14:11:37;14.00;99.90
4787;DHT22;62338;48.832;9.422;2022-11-15T14:13:39;13.90;99.90
4787;DHT22;62338;48.832;9.422;2022-11-15T14:15:41;13.90;99.90
4787;DHT22;62338;48.832;9.422;2022-11-15T14:17:42;13.90;99.90
4787;DHT22;62338;48.832;9.422;2022-11-15T14:19:50;13.80;30.60
4787;DHT22;62338;48.832;9.422;2022-11-15T14:24:21;13.70;1.00
4787;DHT22;62338;48.832;9.422;2022-11-15T14:26:32;13.60;1.00
4787;DHT22;62338;48.832;9.422;2022-11-15T14:28:34;13.50;99.90
4787;DHT22;62338;48.832;9.422;2022-11-15T14:30:41;13.40;14.00
4787;DHT22;62338;48.832;9.422;2022-11-15T14:32:48;13.30;70.90
4787;DHT22;62338;48.832;9.422;2022-11-15T14:34:58;13.30;99.90
4787;DHT22;62338;48.832;9.422;2022-11-15T14:37:00;13.30;99.90
4787;DHT22;62338;48.832;9.422;2022-11-15T14:39:02;13.20;99.90
4787;DHT22;62338;48.832;9.422;2022-11-15T14:41:24;13.10;99.60
4787;DHT22;62338;48.832;9.422;2022-11-15T14:43:27;13.10;1.00
4787;DHT22;62338;48.832;9.422;2022-11-15T14:45:29;13.00;1.00
4787;DHT22;62338;48.832;9.422;2022-11-15T14:47:31;12.90;1.00
4787;DHT22;62338;48.832;9.422;2022-11-15T14:49:32;12.80;99.90
4787;DHT22;62338;48.832;9.422;2022-11-15T14:51:34;12.80;99.90
4787;DHT22;62338;48.832;9.422;2022-11-15T14:53:36;12.70;1.00
4787;DHT22;62338;48.832;9.422;2022-11-15T14:55:38;12.70;99.90
4787;DHT22;62338;48.832;9.422;2022-11-15T14:57:40;12.60;99.90
4787;DHT22;62338;48.832;9.422;2022-11-15T14:59:42;12.50;1.00
4787;DHT22;62338;48.832;9.422;2022-11-15T15:01:43;12.40;1.00
4787;DHT22;62338;48.832;9.422;2022-11-15T15:03:45;12.30;46.10